KGEV

Ashe County Airport

Jefferson, North Carolina, USA
METAR KGEV 150315Z AUTO 00000KT 10SM BKN060 OVC080 18/16 A3019 RMK AO2 T01830159
Observed Flight Rules
Aug-15 @ 03:15 UTC (22 minutes ago) Visual Flight Rules
Visibility Clouds
10 miles
  • Broken at 6,000' AGL
  • Overcast at 8,000' AGL
Temperatures Readings
Current 18°C / 64°F
Dewpoint 16°C / 61°F
Humidity 88%
Altimeter 30.19" Hg
Pressure 1022 hPa
Elevation 969
METAR KGEV 150315Z AUTO 00000KT 10SM BKN060 OVC080 18/16 A3019 RMK AO2 T01830159
Observed Flight Rules
Aug-15 @ 03:15 UTC
(22 minutes ago)
VFR
Clouds
  • Broken at 6,000' AGL
  • Overcast at 8,000' AGL
Temperature Dewpoint
18°C / 64°F 16°C / 61°F
Humidity Altimeter Pressure
88% 30.19" Hg 1022 hPa